Time;durP1;ratioP1;P1;durP2;ratioP2;P2;SDS_P1;SDS_P2;PMS_P1;PMS_P2;Temp;Humidity;BMP_temperature;BMP_pressure;BME280_temperature;BME280_humidity;BME280_pressure;Samples;Min_cycle;Max_cycle;Signal;HPM_P1;HPM_P2
2021/12/25 00:00:20;;;;;;;;;;;;;;;20.83;56.09;98685.47;2094461;28;19916;-39
2021/12/25 00:01:21;;;;;;;;;;;;;;;20.83;56.08;98690.94;2088167;28;20281;-40
2021/12/25 00:02:22;;;;;;;;;;;;;;;20.82;56.10;98681.00;2090808;28;20691;-40
2021/12/25 00:03:22;;;;;;;;;;;;;;;20.82;55.97;98691.97;2087772;28;20095;-39
2021/12/25 00:04:22;;;;;;;;;;;;;;;20.82;55.98;98689.22;2090510;28;20409;-40
2021/12/25 00:05:23;;;;;;;;;;;;;;;20.82;56.21;98694.69;2095263;28;20376;-40
2021/12/25 00:06:24;;;;;;;;;;;;;;;20.81;55.99;98682.06;2087109;28;20323;-40
2021/12/25 00:07:24;;;;;;;;;;;;;;;20.82;55.93;98682.91;2086931;28;19919;-39
2021/12/25 00:08:26;;;;;;;;;;;;;;;20.81;56.00;98686.69;2092501;28;19908;-40
2021/12/25 00:09:26;;;;;;;;;;;;;;;20.81;55.89;98682.06;2089051;28;19916;-40
2021/12/25 00:10:30;;;;;;;;;;;;;;;20.80;56.02;98669.41;2094089;28;19947;-40
2021/12/25 00:11:30;;;;;;;;;;;;;;;20.80;55.98;98680.38;2093776;28;20218;-40
2021/12/25 00:12:31;;;;;;;;;;;;;;;20.80;56.19;98671.28;2085341;28;19908;-40
2021/12/25 00:13:31;;;;;;;;;;;;;;;20.79;56.08;98675.91;2085454;28;19920;-40
2021/12/25 00:14:32;;;;;;;;;;;;;;;20.78;55.85;98676.97;2089756;28;20266;-39
2021/12/25 00:15:32;;;;;;;;;;;;;;;20.78;55.80;98668.75;2092390;28;20770;-44
2021/12/25 00:16:32;;;;;;;;;;;;;;;20.78;55.91;98666.03;2092949;28;19916;-40
2021/12/25 00:17:33;;;;;;;;;;;;;;;20.79;55.81;98672.34;2091276;28;20606;-39
2021/12/25 00:18:34;;;;;;;;;;;;;;;20.79;55.73;98670.44;2095037;28;20318;-40
2021/12/25 00:19:34;;;;;;;;;;;;;;;20.79;55.87;98666.88;2090817;28;19946;-40
2021/12/25 00:20:34;;;;;;;;;;;;;;;20.80;56.00;98668.53;2094241;28;19920;-39
2021/12/25 00:21:35;;;;;;;;;;;;;;;20.80;55.95;98663.94;2094460;28;19923;-40
2021/12/25 00:22:35;;;;;;;;;;;;;;;20.80;55.58;98663.94;2092650;28;19926;-40
2021/12/25 00:23:37;;;;;;;;;;;;;;;20.83;55.78;98660.81;2095322;28;20049;-40
2021/12/25 00:24:42;;;;;;;;;;;;;;;20.85;55.69;98664.19;2088432;28;19948;-39
2021/12/25 00:25:47;;;;;;;;;;;;;;;20.88;55.44;98662.97;2091629;28;19932;-40
2021/12/25 00:27:01;;;;;;;;;;;;;;;20.89;55.57;98662.75;2092609;28;19939;-39
2021/12/25 00:29:31;;;;;;;;;;;;;;;20.94;55.13;98665.75;2086702;28;19922;-40
2021/12/25 00:30:41;;;;;;;;;;;;;;;20.97;55.10;98657.16;2091576;28;19955;-38
2021/12/25 00:31:49;;;;;;;;;;;;;;;21.02;55.05;98666.66;2088005;28;19963;-40
2021/12/25 00:32:57;;;;;;;;;;;;;;;21.04;54.82;98664.56;2090978;28;19970;-40
2021/12/25 00:34:01;;;;;;;;;;;;;;;21.07;54.77;98664.16;2087678;28;19917;-39
2021/12/25 00:35:01;;;;;;;;;;;;;;;21.10;54.87;98658.31;2089970;28;19916;-40
2021/12/25 00:36:02;;;;;;;;;;;;;;;21.13;54.56;98656.00;2090436;28;20619;-39
2021/12/25 00:37:04;;;;;;;;;;;;;;;21.15;54.33;98655.81;2092811;28;20162;-40
2021/12/25 00:38:05;;;;;;;;;;;;;;;21.18;54.52;98661.75;2090460;28;19920;-39
2021/12/25 00:39:06;;;;;;;;;;;;;;;21.19;54.18;98651.63;2095025;28;19916;-39
2021/12/25 00:40:07;;;;;;;;;;;;;;;21.20;54.19;98653.34;2080450;28;20142;-40
2021/12/25 00:41:07;;;;;;;;;;;;;;;21.24;54.24;98651.91;2085048;28;19952;-40
2021/12/25 00:42:07;;;;;;;;;;;;;;;21.24;54.27;98654.66;2092833;28;19946;-39
2021/12/25 00:43:07;;;;;;;;;;;;;;;21.25;54.15;98650.00;2090710;28;19952;-40
2021/12/25 00:44:08;;;;;;;;;;;;;;;21.27;53.94;98654.25;2094120;28;19915;-40
2021/12/25 00:45:08;;;;;;;;;;;;;;;21.28;54.03;98650.44;2090519;28;20270;-40
2021/12/25 00:46:09;;;;;;;;;;;;;;;21.30;54.06;98648.34;2093898;28;19912;-39
2021/12/25 00:47:09;;;;;;;;;;;;;;;21.31;53.96;98649.19;2092393;28;19908;-40
2021/12/25 00:48:09;;;;;;;;;;;;;;;21.34;53.98;98654.28;2094039;28;19924;-39
2021/12/25 00:49:09;;;;;;;;;;;;;;;21.34;53.99;98649.66;2091739;28;19920;-40
2021/12/25 00:50:10;;;;;;;;;;;;;;;21.35;53.84;98651.34;2092499;28;19916;-40
2021/12/25 00:51:11;;;;;;;;;;;;;;;21.36;53.86;98647.56;2091492;28;19931;-40
2021/12/25 00:52:11;;;;;;;;;;;;;;;21.37;53.91;98654.72;2092910;28;20222;-40
2021/12/25 00:53:11;;;;;;;;;;;;;;;21.37;53.54;98643.75;2083322;28;19908;-40
2021/12/25 00:54:12;;;;;;;;;;;;;;;21.39;53.62;98646.34;2082924;28;19916;-40
2021/12/25 00:55:13;;;;;;;;;;;;;;;21.38;53.65;98645.44;2087441;28;19940;-40
2021/12/25 00:56:13;;;;;;;;;;;;;;;21.39;53.75;98641.72;2092198;28;19947;-40
2021/12/25 00:57:14;;;;;;;;;;;;;;;21.39;53.60;98636.22;2093025;28;19923;-40
2021/12/25 00:58:14;;;;;;;;;;;;;;;21.40;53.87;98642.56;2089843;28;19927;-40
2021/12/25 00:59:15;;;;;;;;;;;;;;;21.39;53.78;98647.19;2090647;28;19923;-39
2021/12/25 01:00:15;;;;;;;;;;;;;;;21.38;53.76;98639.97;2087595;28;19917;-40
2021/12/25 01:01:16;;;;;;;;;;;;;;;21.38;53.43;98639.97;2093380;28;19916;-40
2021/12/25 01:02:16;;;;;;;;;;;;;;;21.40;53.47;98631.59;2092151;28;20011;-40
2021/12/25 01:03:16;;;;;;;;;;;;;;;21.39;53.45;98636.22;2088671;28;19952;-39
2021/12/25 01:04:17;;;;;;;;;;;;;;;21.39;53.47;98640.88;2093131;28;20483;-40
2021/12/25 01:05:17;;;;;;;;;;;;;;;21.38;53.40;98637.22;2094177;28;19958;-40
2021/12/25 01:06:18;;;;;;;;;;;;;;;21.38;53.68;98631.75;2091411;28;19920;-40
2021/12/25 01:07:18;;;;;;;;;;;;;;;21.38;53.45;98639.97;2094618;28;20389;-40
2021/12/25 01:08:18;;;;;;;;;;;;;;;21.38;53.51;98634.47;2091565;28;20717;-39
2021/12/25 01:09:19;;;;;;;;;;;;;;;21.36;53.30;98630.25;2093331;28;20365;-40
2021/12/25 01:10:21;;;;;;;;;;;;;;;21.36;53.65;98622.91;2092208;28;19923;-40
2021/12/25 01:11:24;;;;;;;;;;;;;;;21.37;53.44;98630.06;2090659;28;20113;-39
2021/12/25 01:12:25;;;;;;;;;;;;;;;21.37;53.71;98621.84;2092669;28;19943;-39
2021/12/25 01:13:37;;;;;;;;;;;;;;;21.37;53.34;98631.97;2090194;28;19916;-40
2021/12/25 01:14:52;;;;;;;;;;;;;;;21.36;53.70;98628.38;2093051;28;19983;-40
2021/12/25 01:19:54;;;;;;;;;;;;;;;21.35;53.35;98639.53;2058907;28;19914;-39
2021/12/25 01:31:22;;;;;;;;;;;;;;;21.31;53.44;98633.63;2075948;28;20706;-39
2021/12/25 01:34:01;;;;;;;;;;;;;;;21.31;53.39;98627.25;2092685;28;19923;-39
2021/12/25 01:41:43;;;;;;;;;;;;;;;21.27;53.56;98618.59;2093906;28;20329;-40
2021/12/25 01:47:47;;;;;;;;;;;;;;;21.26;53.55;98616.91;2093584;28;19920;-40
2021/12/25 01:48:48;;;;;;;;;;;;;;;21.25;53.51;98607.00;2086760;28;20040;-40
2021/12/25 01:49:48;;;;;;;;;;;;;;;21.24;53.56;98610.78;2091626;28;19916;-39
2021/12/25 01:50:49;;;;;;;;;;;;;;;21.24;53.31;98605.31;2091190;28;19928;-40
2021/12/25 01:51:49;;;;;;;;;;;;;;;21.24;53.26;98604.44;2092967;28;20291;-40
2021/12/25 01:52:50;;;;;;;;;;;;;;;21.23;53.51;98603.59;2084910;28;19916;-40
2021/12/25 01:53:51;;;;;;;;;;;;;;;21.24;53.31;98599.84;2084970;28;19978;-40
2021/12/25 01:54:51;;;;;;;;;;;;;;;21.22;53.46;98599.19;2091302;28;20331;-39
2021/12/25 01:55:51;;;;;;;;;;;;;;;21.22;53.20;98596.44;2085306;28;20273;-39
2021/12/25 01:56:52;;;;;;;;;;;;;;;21.22;53.35;98601.91;2085878;28;19927;-39
2021/12/25 01:57:54;;;;;;;;;;;;;;;21.22;53.27;98599.19;2086421;28;19956;-39
2021/12/25 01:58:54;;;;;;;;;;;;;;;21.22;53.33;98599.19;2093842;28;19912;-40
2021/12/25 01:59:55;;;;;;;;;;;;;;;21.21;53.53;98602.94;2092781;28;20001;-40
2021/12/25 02:00:57;;;;;;;;;;;;;;;21.20;53.44;98604.84;2094074;28;19919;-40
2021/12/25 02:01:57;;;;;;;;;;;;;;;21.20;53.32;98598.53;2083667;28;20018;-40
2021/12/25 02:02:58;;;;;;;;;;;;;;;21.20;53.15;98595.78;2074680;28;20394;-40
2021/12/25 02:03:58;;;;;;;;;;;;;;;21.19;53.35;98597.69;2085820;28;19927;-40
2021/12/25 02:04:59;;;;;;;;;;;;;;;21.18;53.32;98592.41;2093272;28;20314;-40
2021/12/25 02:05:59;;;;;;;;;;;;;;;21.19;53.21;98596.81;2092435;28;19961;-40
2021/12/25 02:06:59;;;;;;;;;;;;;;;21.18;53.31;98589.66;2095337;28;19916;-40
2021/12/25 02:08:00;;;;;;;;;;;;;;;21.17;53.35;98585.25;2089291;28;19930;-40
2021/12/25 02:09:01;;;;;;;;;;;;;;;21.16;53.18;98589.84;2087322;28;20793;-40
2021/12/25 02:10:02;;;;;;;;;;;;;;;21.17;53.21;98593.47;2085067;28;20460;-40
2021/12/25 02:11:02;;;;;;;;;;;;;;;21.16;53.23;98591.75;2087028;28;19920;-39
2021/12/25 02:12:03;;;;;;;;;;;;;;;21.16;53.50;98591.75;2085789;28;20240;-40
2021/12/25 02:13:04;;;;;;;;;;;;;;;21.15;53.39;98590.91;2087074;28;19916;-40
2021/12/25 02:14:04;;;;;;;;;;;;;;;21.16;53.55;98597.22;2087369;28;20409;-40
2021/12/25 02:15:10;;;;;;;;;;;;;;;21.15;53.29;98592.81;2087781;28;20178;-40
2021/12/25 02:16:14;;;;;;;;;;;;;;;21.14;53.36;98589.22;2091895;28;19923;-40
2021/12/25 02:18:30;;;;;;;;;;;;;;;21.14;53.28;98594.72;2091406;28;19919;-40
2021/12/25 02:19:41;;;;;;;;;;;;;;;21.14;53.12;98588.34;2090229;28;20501;-40
2021/12/25 02:20:54;;;;;;;;;;;;;;;21.14;53.31;98588.34;2092706;28;19970;-40
2021/12/25 02:21:58;;;;;;;;;;;;;;;21.13;53.54;98587.50;2093551;28;19912;-40
2021/12/25 02:23:04;;;;;;;;;;;;;;;21.12;53.27;98585.84;2089551;28;20463;-40
2021/12/25 02:24:11;;;;;;;;;;;;;;;21.11;53.45;98589.59;2093321;28;20318;-39
2021/12/25 02:25:12;;;;;;;;;;;;;;;21.12;53.42;98582.25;2090017;28;20003;-40
2021/12/25 02:26:12;;;;;;;;;;;;;;;21.11;53.43;98583.28;2089366;28;19916;-40
2021/12/25 02:27:13;;;;;;;;;;;;;;;21.11;53.45;98583.28;2090819;28;19912;-40
2021/12/25 02:28:14;;;;;;;;;;;;;;;21.11;53.37;98588.75;2093198;28;19962;-40
2021/12/25 02:29:14;;;;;;;;;;;;;;;21.10;53.20;98587.91;2086823;28;19920;-39
2021/12/25 02:30:14;;;;;;;;;;;;;;;21.08;53.45;98584.53;2093654;28;20425;-40
2021/12/25 02:31:16;;;;;;;;;;;;;;;21.08;53.55;98584.53;2093589;28;20252;-39
2021/12/25 02:32:16;;;;;;;;;;;;;;;21.08;53.21;98586.44;2093085;28;20002;-39
2021/12/25 02:33:17;;;;;;;;;;;;;;;21.08;53.43;98589.16;2091718;28;20078;-40
2021/12/25 02:34:17;;;;;;;;;;;;;;;21.08;53.49;98589.16;2093335;28;20270;-40
2021/12/25 02:35:18;;;;;;;;;;;;;;;21.07;53.47;98592.94;2085442;28;19924;-40
2021/12/25 02:36:18;;;;;;;;;;;;;;;21.07;53.26;98587.44;2093576;28;20067;-40
2021/12/25 02:37:18;;;;;;;;;;;;;;;21.06;53.38;98589.34;2092074;28;19939;-40
2021/12/25 02:38:19;;;;;;;;;;;;;;;21.06;53.35;98594.00;2087536;28;20424;-39
2021/12/25 02:39:20;;;;;;;;;;;;;;;21.05;53.41;98586.84;2092444;28;19919;-40
2021/12/25 02:40:20;;;;;;;;;;;;;;;21.05;53.41;98595.06;2088066;28;19916;-39
2021/12/25 02:41:21;;;;;;;;;;;;;;;21.04;53.39;98583.22;2091949;28;19948;-40
2021/12/25 02:42:21;;;;;;;;;;;;;;;21.04;53.28;98587.84;2090073;28;19927;-40
2021/12/25 02:43:22;;;;;;;;;;;;;;;21.04;53.45;98582.38;2092286;28;19973;-39
2021/12/25 02:44:22;;;;;;;;;;;;;;;21.03;53.31;98586.19;2092734;28;20454;-40
2021/12/25 02:45:23;;;;;;;;;;;;;;;21.02;53.37;98588.09;2087695;28;19916;-40
2021/12/25 02:46:24;;;;;;;;;;;;;;;21.02;53.53;98585.34;2092210;28;19963;-40
2021/12/25 02:47:25;;;;;;;;;;;;;;;21.02;53.50;98581.72;2087480;28;20340;-40
2021/12/25 02:48:25;;;;;;;;;;;;;;;21.01;53.50;98582.78;2087835;28;19916;-40
2021/12/25 02:49:26;;;;;;;;;;;;;;;21.01;53.39;98583.63;2087197;28;19908;-40
2021/12/25 02:50:27;;;;;;;;;;;;;;;21.00;53.31;98581.09;2088186;28;20386;-40
2021/12/25 02:51:28;;;;;;;;;;;;;;;21.00;53.47;98581.09;2086837;28;19916;-40
2021/12/25 02:52:28;;;;;;;;;;;;;;;20.99;53.40;98580.22;2090963;28;20034;-39
2021/12/25 02:53:28;;;;;;;;;;;;;;;21.00;53.48;98581.09;2088195;28;19985;-40
2021/12/25 02:54:29;;;;;;;;;;;;;;;20.99;53.52;98574.75;2085776;28;19916;-40
2021/12/25 02:55:29;;;;;;;;;;;;;;;20.98;53.46;98573.06;2078000;28;19935;-40
2021/12/25 02:56:29;;;;;;;;;;;;;;;20.99;53.41;98574.75;2092771;28;19912;-39
2021/12/25 02:57:31;;;;;;;;;;;;;;;20.97;53.59;98572.25;2081457;28;20301;-40
2021/12/25 02:58:32;;;;;;;;;;;;;;;20.96;53.57;98567.78;2085557;28;20225;-40
2021/12/25 02:59:32;;;;;;;;;;;;;;;20.96;53.40;98567.78;2083977;28;19916;-39
2021/12/25 03:00:35;;;;;;;;;;;;;;;20.96;53.38;98570.53;2084000;28;19909;-39
2021/12/25 03:01:35;;;;;;;;;;;;;;;20.95;53.35;98563.38;2093365;28;19916;-40
2021/12/25 03:02:35;;;;;;;;;;;;;;;20.95;53.61;98557.03;2086086;28;20894;-40
2021/12/25 03:03:36;;;;;;;;;;;;;;;20.95;53.51;98559.78;2091821;28;19916;-40
2021/12/25 03:04:38;;;;;;;;;;;;;;;20.94;53.60;98569.88;2092435;28;19916;-40
2021/12/25 03:05:38;;;;;;;;;;;;;;;20.94;53.28;98571.78;2093610;28;20249;-40
2021/12/25 03:06:38;;;;;;;;;;;;;;;20.95;53.32;98570.75;2095695;28;19913;-40
2021/12/25 03:07:39;;;;;;;;;;;;;;;20.93;53.46;98573.66;2093976;28;19920;-40
2021/12/25 03:08:40;;;;;;;;;;;;;;;20.92;53.59;98569.25;2095008;28;19920;-39
2021/12/25 03:09:41;;;;;;;;;;;;;;;20.94;53.65;98569.03;2088725;28;19955;-40
2021/12/25 03:10:42;;;;;;;;;;;;;;;20.93;53.46;98565.44;2087211;28;19920;-40
2021/12/25 03:11:42;;;;;;;;;;;;;;;20.91;53.48;98567.53;2095422;28;20341;-40
2021/12/25 03:13:05;;;;;;;;;;;;;;;20.91;53.51;98564.78;2089232;28;19948;-39
2021/12/25 03:14:23;;;;;;;;;;;;;;;20.91;53.32;98562.06;2087201;28;19931;-40
2021/12/25 03:15:30;;;;;;;;;;;;;;;20.90;53.41;98557.63;2086655;28;19982;-40
2021/12/25 03:16:30;;;;;;;;;;;;;;;20.89;53.39;98557.81;2093210;28;19916;-39
2021/12/25 03:17:31;;;;;;;;;;;;;;;20.89;53.33;98564.16;2093792;28;20306;-40
2021/12/25 03:18:37;;;;;;;;;;;;;;;20.89;53.32;98558.66;2094124;28;19929;-40
2021/12/25 03:19:38;;;;;;;;;;;;;;;20.89;53.26;98564.16;2093878;28;19923;-40
2021/12/25 03:20:40;;;;;;;;;;;;;;;20.89;53.24;98558.66;2092605;28;19924;-40
2021/12/25 03:21:40;;;;;;;;;;;;;;;20.89;53.29;98558.66;2091426;28;20330;-40
2021/12/25 03:22:40;;;;;;;;;;;;;;;20.88;53.47;98554.25;2092448;28;19916;-39
2021/12/25 03:23:41;;;;;;;;;;;;;;;20.87;53.31;98549.81;2093727;28;20306;-40
2021/12/25 03:24:41;;;;;;;;;;;;;;;20.87;53.18;98544.34;2094250;28;19938;-39
2021/12/25 03:25:44;;;;;;;;;;;;;;;20.87;53.45;98540.75;2093363;28;20208;-40
2021/12/25 03:26:45;;;;;;;;;;;;;;;20.87;53.43;98544.34;2093154;28;19912;-39
2021/12/25 03:27:46;;;;;;;;;;;;;;;20.87;53.30;98546.22;2093052;28;20130;-39
2021/12/25 03:28:49;;;;;;;;;;;;;;;20.85;53.32;98557.41;2094996;28;20384;-40
2021/12/25 03:29:50;;;;;;;;;;;;;;;20.86;53.20;98559.06;2090070;28;19916;-39
2021/12/25 03:30:50;;;;;;;;;;;;;;;20.86;53.41;98564.56;2088058;28;19951;-40
2021/12/25 03:31:51;;;;;;;;;;;;;;;20.85;53.61;98557.41;2095138;28;20357;-40
2021/12/25 03:32:51;;;;;;;;;;;;;;;20.85;53.33;98565.59;2091268;28;19954;-39
2021/12/25 03:33:53;;;;;;;;;;;;;;;20.85;53.29;98567.47;2093651;28;20477;-40
2021/12/25 03:34:53;;;;;;;;;;;;;;;20.84;53.47;98560.31;2088106;28;19917;-40
2021/12/25 03:35:54;;;;;;;;;;;;;;;20.84;53.26;98561.16;2092520;28;20267;-39
2021/12/25 03:36:54;;;;;;;;;;;;;;;20.84;53.33;98547.47;2085928;28;19919;-40
2021/12/25 03:37:54;;;;;;;;;;;;;;;20.84;53.33;98549.38;2085050;28;20337;-40
2021/12/25 03:38:55;;;;;;;;;;;;;;;20.83;53.46;98545.78;2093504;28;20043;-40
2021/12/25 03:39:55;;;;;;;;;;;;;;;20.84;53.60;98535.66;2087683;28;19982;-40
2021/12/25 03:40:56;;;;;;;;;;;;;;;20.82;53.54;98530.38;2093234;28;19916;-40
2021/12/25 03:41:58;;;;;;;;;;;;;;;20.82;53.58;98524.91;2089024;28;19916;-40
2021/12/25 03:42:59;;;;;;;;;;;;;;;20.80;53.40;98527.03;2093870;28;19957;-40
2021/12/25 03:44:00;;;;;;;;;;;;;;;20.81;53.43;98517.75;2094459;28;19908;-40
2021/12/25 03:45:00;;;;;;;;;;;;;;;20.81;53.51;98523.22;2094166;28;20355;-40
2021/12/25 03:46:01;;;;;;;;;;;;;;;20.81;53.42;98523.22;2095437;28;20266;-40
2021/12/25 03:47:11;;;;;;;;;;;;;;;20.80;53.48;98527.03;2080592;28;19943;-40
2021/12/25 03:49:27;;;;;;;;;;;;;;;20.80;53.29;98523.41;2079849;28;19909;-40
2021/12/25 03:57:51;;;;;;;;;;;;;;;20.76;53.52;98493.69;2088786;28;20004;-38
2021/12/25 03:58:52;;;;;;;;;;;;;;;20.77;53.27;98494.53;2092988;28;19966;-40
2021/12/25 03:59:59;;;;;;;;;;;;;;;20.76;53.34;98490.97;2091689;28;19912;-40
2021/12/25 04:01:12;;;;;;;;;;;;;;;20.76;53.52;98492.84;2088704;28;20639;-39
2021/12/25 04:02:19;;;;;;;;;;;;;;;20.75;53.37;98508.44;2092441;28;20152;-46
2021/12/25 04:03:44;;;;;;;;;;;;;;;20.76;53.28;98525.72;2094150;28;20002;-40
2021/12/25 04:04:44;;;;;;;;;;;;;;;20.75;53.58;98524.88;2090516;28;20710;-40
2021/12/25 04:05:47;;;;;;;;;;;;;;;20.76;53.48;98536.66;2088787;28;19926;-40
2021/12/25 04:06:58;;;;;;;;;;;;;;;20.76;53.53;98536.66;2094171;28;20007;-39
2021/12/25 04:08:07;;;;;;;;;;;;;;;20.75;53.45;98545.94;2092117;28;19908;-40
2021/12/25 04:09:14;;;;;;;;;;;;;;;20.74;53.58;98545.06;2093693;28;19917;-40
2021/12/25 04:10:15;;;;;;;;;;;;;;;20.74;53.34;98536.84;2092465;28;20167;-40
2021/12/25 04:11:26;;;;;;;;;;;;;;;20.73;53.44;98539.81;2091762;28;19955;-40
2021/12/25 04:12:27;;;;;;;;;;;;;;;20.74;53.33;98533.28;2092674;28;20193;-40
2021/12/25 04:13:27;;;;;;;;;;;;;;;20.73;53.28;98520.66;2093527;28;20143;-40
2021/12/25 04:14:27;;;;;;;;;;;;;;;20.72;53.60;98521.66;2093577;28;19927;-40
2021/12/25 04:15:28;;;;;;;;;;;;;;;20.72;53.36;98521.66;2084506;28;19971;-40
2021/12/25 04:16:28;;;;;;;;;;;;;;;20.71;53.36;98520.00;2085387;28;19959;-40
2021/12/25 04:17:28;;;;;;;;;;;;;;;20.72;53.46;98527.16;2092015;28;19915;-40
2021/12/25 04:18:29;;;;;;;;;;;;;;;20.71;53.52;98522.72;2089113;28;20381;-40
2021/12/25 04:19:29;;;;;;;;;;;;;;;20.71;53.61;98528.19;2089334;28;20361;-40
2021/12/25 04:20:31;;;;;;;;;;;;;;;20.70;53.45;98527.38;2092631;28;19912;-40
2021/12/25 04:21:31;;;;;;;;;;;;;;;20.71;53.47;98526.31;2095361;28;19923;-40
2021/12/25 04:22:58;;;;;;;;;;;;;;;20.69;53.46;98522.91;2088042;28;19939;-40
2021/12/25 04:23:52;;;;;;;;;;;;;;;20.72;53.45;98524.41;2091808;28;19951;-39
2021/12/25 04:24:53;;;;;;;;;;;;;;;20.71;53.56;98525.47;2091641;28;19916;-39
2021/12/25 04:25:56;;;;;;;;;;;;;;;20.69;53.32;98513.84;2094910;28;19919;-39
2021/12/25 04:26:56;;;;;;;;;;;;;;;20.69;53.49;98513.84;2092617;28;20505;-40
2021/12/25 04:28:01;;;;;;;;;;;;;;;20.68;53.34;98507.53;2092867;28;19977;-40
2021/12/25 04:29:16;;;;;;;;;;;;;;;20.68;53.44;98506.69;2086288;28;19922;-40
2021/12/25 04:30:48;;;;;;;;;;;;;;;20.67;53.57;98503.09;2090284;28;19916;-40
2021/12/25 05:03:56;;;;;;;;;;;;;;;20.80;52.93;98504.25;2091964;28;19916;-44
2021/12/25 05:05:01;;;;;;;;;;;;;;;20.83;53.18;98504.69;2092394;28;20266;-44
2021/12/25 05:06:01;;;;;;;;;;;;;;;20.86;53.02;98509.78;2093151;28;20342;-45
2021/12/25 05:07:02;;;;;;;;;;;;;;;20.87;52.98;98506.00;2092764;28;19969;-46
2021/12/25 05:08:03;;;;;;;;;;;;;;;20.89;52.93;98509.38;2094537;28;19916;-39
2021/12/25 05:09:03;;;;;;;;;;;;;;;20.91;52.79;98518.25;2088614;28;19916;-39
2021/12/25 05:10:04;;;;;;;;;;;;;;;20.91;52.68;98523.72;2094030;28;19920;-39
2021/12/25 05:11:04;;;;;;;;;;;;;;;20.94;52.86;98520.56;2093284;28;20376;-43
2021/12/25 05:12:05;;;;;;;;;;;;;;;20.94;52.60;98528.78;2093505;28;19916;-43
2021/12/25 05:13:05;;;;;;;;;;;;;;;20.93;52.77;98535.31;2094834;28;19958;-42
2021/12/25 05:14:06;;;;;;;;;;;;;;;20.94;52.70;98533.41;2090861;28;20048;-40
2021/12/25 05:15:07;;;;;;;;;;;;;;;20.93;52.82;98540.78;2087965;28;19916;-40
2021/12/25 05:16:07;;;;;;;;;;;;;;;20.94;52.87;98538.91;2091319;28;20217;-39
2021/12/25 05:17:08;;;;;;;;;;;;;;;20.91;52.99;98545.63;2090377;28;19915;-39
2021/12/25 05:18:08;;;;;;;;;;;;;;;20.93;53.09;98543.53;2094049;28;19908;-39
2021/12/25 05:19:09;;;;;;;;;;;;;;;20.93;53.00;98540.78;2090390;28;19905;-39
2021/12/25 05:20:09;;;;;;;;;;;;;;;20.94;52.97;98530.69;2092347;28;19908;-40
2021/12/25 05:21:10;;;;;;;;;;;;;;;20.95;53.01;98532.41;2093556;28;19945;-40
2021/12/25 05:22:13;;;;;;;;;;;;;;;20.94;52.94;98526.03;2092417;28;20034;-39
2021/12/25 05:23:14;;;;;;;;;;;;;;;20.91;53.05;98518.25;2095585;28;19916;-41
2021/12/25 05:24:14;;;;;;;;;;;;;;;20.93;53.02;98520.78;2093420;28;20045;-41
2021/12/25 05:25:15;;;;;;;;;;;;;;;20.94;53.11;98511.50;2091627;28;19927;-43
2021/12/25 05:26:16;;;;;;;;;;;;;;;20.94;52.81;98506.03;2093559;28;20402;-42
2021/12/25 05:27:16;;;;;;;;;;;;;;;20.94;53.02;98506.03;2095448;28;19915;-40
2021/12/25 05:28:24;;;;;;;;;;;;;;;20.94;52.76;98501.41;2092766;28;20616;-39
2021/12/25 05:29:25;;;;;;;;;;;;;;;20.95;52.68;98503.09;2090996;28;19969;-39
2021/12/25 05:30:26;;;;;;;;;;;;;;;20.95;52.59;98508.59;2093097;28;20346;-39
2021/12/25 05:31:28;;;;;;;;;;;;;;;20.95;52.69;98500.38;2091700;28;19960;-42
2021/12/25 05:32:28;;;;;;;;;;;;;;;20.95;52.86;98508.59;2102722;28;20444;-43
2021/12/25 05:33:28;;;;;;;;;;;;;;;20.96;52.99;98504.78;2092873;28;19916;-42
2021/12/25 05:34:29;;;;;;;;;;;;;;;20.93;52.87;98499.72;2099042;28;19951;-42
2021/12/25 05:35:29;;;;;;;;;;;;;;;20.94;52.67;98501.41;2096899;28;19912;-40
2021/12/25 05:36:30;;;;;;;;;;;;;;;20.95;52.80;98505.00;2090298;28;20626;-39
2021/12/25 05:37:31;;;;;;;;;;;;;;;20.94;52.61;98495.91;2097956;28;19959;-40
2021/12/25 05:38:31;;;;;;;;;;;;;;;20.93;52.92;98491.50;2087241;28;20341;-39
2021/12/25 05:39:32;;;;;;;;;;;;;;;20.93;52.85;98499.72;2095964;28;20000;-39
2021/12/25 05:40:32;;;;;;;;;;;;;;;20.93;52.68;98499.72;2089921;28;20370;-40
2021/12/25 05:41:32;;;;;;;;;;;;;;;20.92;52.65;98502.66;2085384;28;19916;-39
2021/12/25 05:42:33;;;;;;;;;;;;;;;20.93;52.88;98504.34;2088127;28;19917;-40
2021/12/25 05:43:33;;;;;;;;;;;;;;;20.90;52.98;98508.34;2086876;28;19927;-40
2021/12/25 05:44:33;;;;;;;;;;;;;;;20.90;52.84;98502.88;2093736;28;20545;-42
2021/12/25 05:45:34;;;;;;;;;;;;;;;20.91;52.81;98506.44;2089328;28;19924;-43
2021/12/25 05:46:34;;;;;;;;;;;;;;;20.89;53.06;98508.53;2087055;28;20347;-39
2021/12/25 05:47:35;;;;;;;;;;;;;;;20.88;53.00;98502.22;2093798;28;20006;-39
2021/12/25 05:48:35;;;;;;;;;;;;;;;20.89;53.06;98503.06;2093243;28;19915;-44
2021/12/25 05:49:36;;;;;;;;;;;;;;;20.86;53.03;98507.03;2087515;28;19927;-44
2021/12/25 05:50:36;;;;;;;;;;;;;;;20.87;52.93;98506.00;2095442;28;20053;-44
2021/12/25 05:51:37;;;;;;;;;;;;;;;20.86;52.83;98507.03;2092941;28;20191;-43
2021/12/25 05:52:37;;;;;;;;;;;;;;;20.86;53.07;98509.78;2094788;28;20318;-40
2021/12/25 05:53:38;;;;;;;;;;;;;;;20.87;52.91;98519.69;2093257;28;19908;-39
2021/12/25 05:54:38;;;;;;;;;;;;;;;20.88;53.05;98524.13;2095014;28;20362;-39
2021/12/25 05:55:38;;;;;;;;;;;;;;;20.88;52.90;98526.88;2092853;28;19904;-39
2021/12/25 05:56:38;;;;;;;;;;;;;;;20.86;52.90;98526.22;2092047;28;19935;-39
2021/12/25 05:57:39;;;;;;;;;;;;;;;20.88;52.73;98528.75;2089112;28;20340;-40
2021/12/25 05:58:39;;;;;;;;;;;;;;;20.88;52.92;98529.59;2084295;28;19959;-39
2021/12/25 05:59:39;;;;;;;;;;;;;;;20.86;52.79;98526.22;2080897;28;19916;-40
2021/12/25 06:00:40;;;;;;;;;;;;;;;20.77;52.87;98521.91;2092110;28;19923;-39
2021/12/25 06:01:40;;;;;;;;;;;;;;;20.68;53.26;98529.44;2093753;28;19916;-38
2021/12/25 06:02:40;;;;;;;;;;;;;;;20.63;53.29;98520.13;2090398;28;19966;-44
2021/12/25 06:03:41;;;;;;;;;;;;;;;20.58;53.55;98517.13;2093167;28;19916;-39
2021/12/25 06:04:41;;;;;;;;;;;;;;;20.53;53.48;98515.81;2095636;28;19916;-40
2021/12/25 06:05:41;;;;;;;;;;;;;;;20.52;53.41;98525.06;2090347;28;20377;-39
2021/12/25 06:06:42;;;;;;;;;;;;;;;20.50;53.57;98521.66;2094291;28;20257;-39
2021/12/25 06:07:42;;;;;;;;;;;;;;;20.48;53.48;98526.50;2095090;28;19924;-39
2021/12/25 06:08:42;;;;;;;;;;;;;;;20.47;53.57;98530.28;2082209;28;19915;-39
2021/12/25 06:09:43;;;;;;;;;;;;;;;20.45;53.69;98524.16;2084355;28;20315;-40
2021/12/25 06:10:43;;;;;;;;;;;;;;;20.44;53.66;98533.41;2089624;28;20269;-39
2021/12/25 06:11:45;;;;;;;;;;;;;;;20.43;53.58;98519.91;2093658;28;19916;-39
2021/12/25 06:12:49;;;;;;;;;;;;;;;20.42;53.76;98534.66;2090375;28;19908;-39
2021/12/25 06:13:58;;;;;;;;;;;;;;;20.41;53.90;98535.72;2092012;28;19916;-39
2021/12/25 06:15:01;;;;;;;;;;;;;;;20.40;53.76;98534.00;2092099;28;19923;-40
2021/12/25 06:16:01;;;;;;;;;;;;;;;20.38;53.81;98534.19;2087775;28;20529;-39
2021/12/25 06:17:02;;;;;;;;;;;;;;;20.37;53.78;98532.50;2095526;28;19916;-40
2021/12/25 06:18:02;;;;;;;;;;;;;;;20.37;53.89;98537.13;2095534;28;19947;-40
2021/12/25 06:19:03;;;;;;;;;;;;;;;20.36;53.82;98530.81;2090189;28;20014;-40
2021/12/25 06:20:04;;;;;;;;;;;;;;;20.36;53.98;98528.09;2089272;28;19923;-39
2021/12/25 06:21:04;;;;;;;;;;;;;;;20.35;53.76;98523.63;2091658;28;19916;-40
2021/12/25 06:22:05;;;;;;;;;;;;;;;20.34;53.83;98521.94;2087613;28;19916;-39
2021/12/25 06:23:05;;;;;;;;;;;;;;;20.34;53.80;98521.94;2090153;28;20502;-39
2021/12/25 06:24:06;;;;;;;;;;;;;;;20.34;53.88;98524.69;2101986;28;19916;-40
2021/12/25 06:25:07;;;;;;;;;;;;;;;20.32;54.04;98516.66;2092539;28;20752;-39
2021/12/25 06:26:07;;;;;;;;;;;;;;;20.31;53.96;98514.97;2093729;28;19983;-39
2021/12/25 06:27:08;;;;;;;;;;;;;;;20.31;54.04;98522.34;2092987;28;20428;-39
2021/12/25 06:28:08;;;;;;;;;;;;;;;20.30;53.90;98518.75;2096320;28;19911;-40
2021/12/25 06:29:09;;;;;;;;;;;;;;;20.30;53.79;98515.16;2094696;28;19916;-40
2021/12/25 06:30:09;;;;;;;;;;;;;;;20.29;53.89;98518.97;2095738;28;20509;-39
2021/12/25 06:31:10;;;;;;;;;;;;;;;20.29;54.07;98513.50;2096362;28;19912;-39
2021/12/25 06:32:10;;;;;;;;;;;;;;;20.28;54.05;98518.09;2095710;28;20188;-40
2021/12/25 06:33:10;;;;;;;;;;;;;;;20.27;54.11;98519.16;2089282;28;19923;-40